sensor_id;sensor_type;location;lat;lon;timestamp;P1;durP1;ratioP1;P2;durP2;ratioP2
9072;SDS011;4572;41.642;25.370;2023-05-14T00:00:11;2.53;;;2.07;;
9072;SDS011;4572;41.642;25.370;2023-05-14T00:02:37;4.07;;;2.40;;
9072;SDS011;4572;41.642;25.370;2023-05-14T00:05:03;2.00;;;1.83;;
9072;SDS011;4572;41.642;25.370;2023-05-14T00:07:29;2.30;;;2.00;;
9072;SDS011;4572;41.642;25.370;2023-05-14T00:09:58;3.20;;;2.23;;
9072;SDS011;4572;41.642;25.370;2023-05-14T00:12:24;2.23;;;1.97;;
9072;SDS011;4572;41.642;25.370;2023-05-14T00:14:54;3.23;;;1.87;;
9072;SDS011;4572;41.642;25.370;2023-05-14T00:17:19;2.47;;;1.90;;
9072;SDS011;4572;41.642;25.370;2023-05-14T00:19:45;5.77;;;2.17;;
9072;SDS011;4572;41.642;25.370;2023-05-14T00:22:10;3.53;;;2.33;;
9072;SDS011;4572;41.642;25.370;2023-05-14T00:24:36;3.00;;;1.93;;
9072;SDS011;4572;41.642;25.370;2023-05-14T00:27:02;2.33;;;1.83;;
9072;SDS011;4572;41.642;25.370;2023-05-14T00:29:28;7.17;;;1.93;;
9072;SDS011;4572;41.642;25.370;2023-05-14T00:31:53;4.40;;;2.13;;
9072;SDS011;4572;41.642;25.370;2023-05-14T00:34:19;2.20;;;2.00;;
9072;SDS011;4572;41.642;25.370;2023-05-14T00:36:45;2.53;;;1.90;;
9072;SDS011;4572;41.642;25.370;2023-05-14T00:39:10;2.60;;;2.17;;
9072;SDS011;4572;41.642;25.370;2023-05-14T00:41:36;3.23;;;2.00;;
9072;SDS011;4572;41.642;25.370;2023-05-14T00:44:02;2.50;;;1.93;;
9072;SDS011;4572;41.642;25.370;2023-05-14T00:46:28;2.40;;;2.00;;
9072;SDS011;4572;41.642;25.370;2023-05-14T00:48:53;2.37;;;2.10;;
9072;SDS011;4572;41.642;25.370;2023-05-14T00:51:20;3.77;;;2.20;;
9072;SDS011;4572;41.642;25.370;2023-05-14T00:53:46;3.60;;;2.10;;
9072;SDS011;4572;41.642;25.370;2023-05-14T00:56:12;2.87;;;2.20;;
9072;SDS011;4572;41.642;25.370;2023-05-14T00:58:38;5.07;;;2.30;;
9072;SDS011;4572;41.642;25.370;2023-05-14T01:01:03;2.40;;;2.20;;
9072;SDS011;4572;41.642;25.370;2023-05-14T01:03:29;2.60;;;2.30;;
9072;SDS011;4572;41.642;25.370;2023-05-14T01:06:09;2.30;;;2.10;;
9072;SDS011;4572;41.642;25.370;2023-05-14T01:14:19;3.93;;;2.10;;
9072;SDS011;4572;41.642;25.370;2023-05-14T01:16:51;2.33;;;2.00;;
9072;SDS011;4572;41.642;25.370;2023-05-14T01:19:20;3.67;;;2.17;;
9072;SDS011;4572;41.642;25.370;2023-05-14T01:22:06;2.90;;;2.37;;
9072;SDS011;4572;41.642;25.370;2023-05-14T01:24:32;2.43;;;2.00;;
9072;SDS011;4572;41.642;25.370;2023-05-14T01:27:16;2.23;;;1.87;;
9072;SDS011;4572;41.642;25.370;2023-05-14T01:29:56;2.27;;;2.00;;
9072;SDS011;4572;41.642;25.370;2023-05-14T01:32:39;3.13;;;2.20;;
9072;SDS011;4572;41.642;25.370;2023-05-14T01:35:05;3.20;;;2.73;;
9072;SDS011;4572;41.642;25.370;2023-05-14T01:37:32;3.30;;;2.63;;
9072;SDS011;4572;41.642;25.370;2023-05-14T01:39:59;2.47;;;2.20;;
9072;SDS011;4572;41.642;25.370;2023-05-14T01:42:24;2.47;;;2.27;;
9072;SDS011;4572;41.642;25.370;2023-05-14T01:44:50;5.30;;;2.70;;
9072;SDS011;4572;41.642;25.370;2023-05-14T01:47:15;3.30;;;2.40;;
9072;SDS011;4572;41.642;25.370;2023-05-14T01:49:41;2.77;;;2.53;;
9072;SDS011;4572;41.642;25.370;2023-05-14T01:52:06;2.27;;;2.07;;
9072;SDS011;4572;41.642;25.370;2023-05-14T01:54:34;1.90;;;1.80;;
9072;SDS011;4572;41.642;25.370;2023-05-14T01:57:00;3.10;;;2.70;;
9072;SDS011;4572;41.642;25.370;2023-05-14T01:59:26;2.90;;;2.07;;
9072;SDS011;4572;41.642;25.370;2023-05-14T02:01:53;4.03;;;2.50;;
9072;SDS011;4572;41.642;25.370;2023-05-14T02:04:19;3.67;;;2.50;;
9072;SDS011;4572;41.642;25.370;2023-05-14T02:06:45;2.50;;;2.30;;
9072;SDS011;4572;41.642;25.370;2023-05-14T02:09:10;3.00;;;2.43;;
9072;SDS011;4572;41.642;25.370;2023-05-14T02:11:36;2.50;;;2.30;;
9072;SDS011;4572;41.642;25.370;2023-05-14T02:14:01;4.43;;;2.50;;
9072;SDS011;4572;41.642;25.370;2023-05-14T02:16:27;3.00;;;2.20;;
9072;SDS011;4572;41.642;25.370;2023-05-14T02:18:52;5.60;;;2.40;;
9072;SDS011;4572;41.642;25.370;2023-05-14T02:21:18;8.27;;;2.80;;
9072;SDS011;4572;41.642;25.370;2023-05-14T02:23:43;3.50;;;2.40;;
9072;SDS011;4572;41.642;25.370;2023-05-14T02:26:09;3.43;;;2.93;;
9072;SDS011;4572;41.642;25.370;2023-05-14T02:28:35;3.97;;;2.27;;
9072;SDS011;4572;41.642;25.370;2023-05-14T02:31:00;3.23;;;2.27;;
9072;SDS011;4572;41.642;25.370;2023-05-14T02:33:26;3.77;;;2.57;;
9072;SDS011;4572;41.642;25.370;2023-05-14T02:35:52;3.40;;;2.57;;
9072;SDS011;4572;41.642;25.370;2023-05-14T02:38:17;2.63;;;2.40;;
9072;SDS011;4572;41.642;25.370;2023-05-14T02:40:43;3.07;;;2.80;;
9072;SDS011;4572;41.642;25.370;2023-05-14T02:43:09;2.57;;;2.37;;
9072;SDS011;4572;41.642;25.370;2023-05-14T02:45:34;2.90;;;2.50;;
9072;SDS011;4572;41.642;25.370;2023-05-14T02:48:00;3.37;;;2.67;;
9072;SDS011;4572;41.642;25.370;2023-05-14T02:50:25;3.00;;;2.50;;
9072;SDS011;4572;41.642;25.370;2023-05-14T02:52:51;3.17;;;2.20;;
9072;SDS011;4572;41.642;25.370;2023-05-14T02:55:17;2.50;;;2.30;;
9072;SDS011;4572;41.642;25.370;2023-05-14T02:57:42;2.77;;;2.50;;
9072;SDS011;4572;41.642;25.370;2023-05-14T03:00:08;3.63;;;2.50;;
9072;SDS011;4572;41.642;25.370;2023-05-14T03:02:34;3.57;;;2.33;;
9072;SDS011;4572;41.642;25.370;2023-05-14T03:05:00;3.87;;;2.70;;
9072;SDS011;4572;41.642;25.370;2023-05-14T03:07:25;3.67;;;2.63;;
9072;SDS011;4572;41.642;25.370;2023-05-14T03:09:51;2.50;;;2.30;;
9072;SDS011;4572;41.642;25.370;2023-05-14T03:12:16;3.17;;;2.50;;
9072;SDS011;4572;41.642;25.370;2023-05-14T03:14:42;2.47;;;2.27;;
9072;SDS011;4572;41.642;25.370;2023-05-14T03:17:08;2.80;;;2.40;;
9072;SDS011;4572;41.642;25.370;2023-05-14T03:19:33;2.57;;;2.37;;
9072;SDS011;4572;41.642;25.370;2023-05-14T03:21:59;2.93;;;2.37;;
9072;SDS011;4572;41.642;25.370;2023-05-14T03:24:25;5.60;;;2.30;;
9072;SDS011;4572;41.642;25.370;2023-05-14T03:26:50;3.60;;;2.50;;
9072;SDS011;4572;41.642;25.370;2023-05-14T03:29:16;2.70;;;2.50;;
9072;SDS011;4572;41.642;25.370;2023-05-14T03:31:42;3.73;;;2.70;;
9072;SDS011;4572;41.642;25.370;2023-05-14T03:34:08;3.03;;;2.67;;
9072;SDS011;4572;41.642;25.370;2023-05-14T03:36:33;3.33;;;2.93;;
9072;SDS011;4572;41.642;25.370;2023-05-14T03:39:00;5.83;;;2.90;;
9072;SDS011;4572;41.642;25.370;2023-05-14T03:41:26;5.10;;;3.40;;
9072;SDS011;4572;41.642;25.370;2023-05-14T03:43:52;4.80;;;2.70;;
9072;SDS011;4572;41.642;25.370;2023-05-14T03:46:17;3.00;;;2.67;;
9072;SDS011;4572;41.642;25.370;2023-05-14T03:48:43;2.37;;;2.17;;
9072;SDS011;4572;41.642;25.370;2023-05-14T03:51:08;3.67;;;2.90;;
9072;SDS011;4572;41.642;25.370;2023-05-14T03:53:34;3.00;;;2.60;;
9072;SDS011;4572;41.642;25.370;2023-05-14T03:55:59;2.87;;;2.67;;
9072;SDS011;4572;41.642;25.370;2023-05-14T03:58:25;4.30;;;2.50;;
9072;SDS011;4572;41.642;25.370;2023-05-14T04:00:50;4.57;;;2.60;;
9072;SDS011;4572;41.642;25.370;2023-05-14T04:03:16;5.00;;;2.83;;
9072;SDS011;4572;41.642;25.370;2023-05-14T04:05:41;2.80;;;2.53;;
9072;SDS011;4572;41.642;25.370;2023-05-14T04:08:07;2.73;;;2.53;;
9072;SDS011;4572;41.642;25.370;2023-05-14T04:10:32;3.23;;;2.83;;
9072;SDS011;4572;41.642;25.370;2023-05-14T04:12:58;6.80;;;2.90;;
9072;SDS011;4572;41.642;25.370;2023-05-14T04:15:23;4.30;;;3.17;;
9072;SDS011;4572;41.642;25.370;2023-05-14T04:17:49;2.73;;;2.53;;
9072;SDS011;4572;41.642;25.370;2023-05-14T04:20:14;3.63;;;2.57;;
9072;SDS011;4572;41.642;25.370;2023-05-14T04:22:40;4.03;;;3.10;;
9072;SDS011;4572;41.642;25.370;2023-05-14T04:25:05;3.43;;;3.10;;
9072;SDS011;4572;41.642;25.370;2023-05-14T04:27:31;3.20;;;2.83;;
9072;SDS011;4572;41.642;25.370;2023-05-14T04:29:58;3.83;;;2.70;;
9072;SDS011;4572;41.642;25.370;2023-05-14T04:32:23;4.03;;;3.00;;
9072;SDS011;4572;41.642;25.370;2023-05-14T04:34:49;4.07;;;3.43;;
9072;SDS011;4572;41.642;25.370;2023-05-14T04:37:15;3.20;;;2.90;;
9072;SDS011;4572;41.642;25.370;2023-05-14T04:39:40;3.43;;;3.03;;
9072;SDS011;4572;41.642;25.370;2023-05-14T04:42:06;7.00;;;3.00;;
9072;SDS011;4572;41.642;25.370;2023-05-14T04:44:33;4.27;;;2.83;;
9072;SDS011;4572;41.642;25.370;2023-05-14T04:46:59;3.73;;;3.03;;
9072;SDS011;4572;41.642;25.370;2023-05-14T04:49:24;3.23;;;2.93;;
9072;SDS011;4572;41.642;25.370;2023-05-14T04:51:50;3.07;;;2.77;;
9072;SDS011;4572;41.642;25.370;2023-05-14T04:54:15;5.03;;;3.73;;
9072;SDS011;4572;41.642;25.370;2023-05-14T04:56:41;8.40;;;5.20;;
9072;SDS011;4572;41.642;25.370;2023-05-14T04:59:06;5.70;;;4.70;;
9072;SDS011;4572;41.642;25.370;2023-05-14T05:01:32;5.90;;;4.90;;
9072;SDS011;4572;41.642;25.370;2023-05-14T05:03:57;5.13;;;4.33;;
9072;SDS011;4572;41.642;25.370;2023-05-14T05:06:23;6.57;;;4.20;;
9072;SDS011;4572;41.642;25.370;2023-05-14T05:08:48;4.87;;;4.37;;
9072;SDS011;4572;41.642;25.370;2023-05-14T05:11:13;6.33;;;3.60;;
9072;SDS011;4572;41.642;25.370;2023-05-14T05:13:39;3.63;;;3.20;;
9072;SDS011;4572;41.642;25.370;2023-05-14T05:16:05;3.00;;;2.80;;
9072;SDS011;4572;41.642;25.370;2023-05-14T05:18:30;4.80;;;3.37;;
9072;SDS011;4572;41.642;25.370;2023-05-14T05:20:56;3.40;;;2.77;;
9072;SDS011;4572;41.642;25.370;2023-05-14T05:23:22;3.20;;;2.70;;
9072;SDS011;4572;41.642;25.370;2023-05-14T05:25:48;3.77;;;2.93;;
9072;SDS011;4572;41.642;25.370;2023-05-14T05:28:13;4.40;;;3.17;;
9072;SDS011;4572;41.642;25.370;2023-05-14T05:30:39;4.43;;;3.20;;
9072;SDS011;4572;41.642;25.370;2023-05-14T05:33:05;3.27;;;2.97;;
9072;SDS011;4572;41.642;25.370;2023-05-14T05:35:30;3.97;;;2.73;;
9072;SDS011;4572;41.642;25.370;2023-05-14T05:37:56;3.33;;;2.90;;
9072;SDS011;4572;41.642;25.370;2023-05-14T05:40:24;2.73;;;2.53;;
9072;SDS011;4572;41.642;25.370;2023-05-14T05:42:49;4.60;;;3.17;;
9072;SDS011;4572;41.642;25.370;2023-05-14T05:45:15;3.53;;;3.10;;
9072;SDS011;4572;41.642;25.370;2023-05-14T05:47:40;4.53;;;3.00;;
9072;SDS011;4572;41.642;25.370;2023-05-14T05:50:06;4.03;;;3.37;;
9072;SDS011;4572;41.642;25.370;2023-05-14T05:52:32;4.40;;;3.13;;
9072;SDS011;4572;41.642;25.370;2023-05-14T05:54:57;4.70;;;3.50;;
9072;SDS011;4572;41.642;25.370;2023-05-14T05:57:23;3.93;;;2.93;;
9072;SDS011;4572;41.642;25.370;2023-05-14T05:59:51;6.57;;;3.60;;
9072;SDS011;4572;41.642;25.370;2023-05-14T06:02:16;5.40;;;4.77;;
9072;SDS011;4572;41.642;25.370;2023-05-14T06:04:42;8.30;;;5.63;;
9072;SDS011;4572;41.642;25.370;2023-05-14T06:07:08;7.80;;;4.63;;
9072;SDS011;4572;41.642;25.370;2023-05-14T06:09:34;6.27;;;5.23;;
9072;SDS011;4572;41.642;25.370;2023-05-14T06:11:59;5.13;;;3.90;;
9072;SDS011;4572;41.642;25.370;2023-05-14T06:14:25;4.87;;;4.20;;
9072;SDS011;4572;41.642;25.370;2023-05-14T06:16:50;5.80;;;4.33;;
9072;SDS011;4572;41.642;25.370;2023-05-14T06:19:15;4.43;;;4.03;;
9072;SDS011;4572;41.642;25.370;2023-05-14T06:21:41;4.90;;;4.40;;
9072;SDS011;4572;41.642;25.370;2023-05-14T06:24:07;5.33;;;4.27;;
9072;SDS011;4572;41.642;25.370;2023-05-14T06:26:32;4.83;;;3.87;;
9072;SDS011;4572;41.642;25.370;2023-05-14T06:28:58;4.73;;;3.77;;
9072;SDS011;4572;41.642;25.370;2023-05-14T06:31:23;7.40;;;3.77;;
9072;SDS011;4572;41.642;25.370;2023-05-14T06:33:49;4.40;;;3.90;;
9072;SDS011;4572;41.642;25.370;2023-05-14T06:36:14;5.87;;;3.73;;
9072;SDS011;4572;41.642;25.370;2023-05-14T06:38:40;5.50;;;4.30;;
9072;SDS011;4572;41.642;25.370;2023-05-14T06:41:06;4.80;;;4.07;;
9072;SDS011;4572;41.642;25.370;2023-05-14T06:43:31;5.10;;;3.87;;
9072;SDS011;4572;41.642;25.370;2023-05-14T06:45:57;4.80;;;3.70;;
9072;SDS011;4572;41.642;25.370;2023-05-14T06:48:22;3.77;;;3.43;;
9072;SDS011;4572;41.642;25.370;2023-05-14T06:50:48;4.20;;;3.37;;
9072;SDS011;4572;41.642;25.370;2023-05-14T06:53:13;5.17;;;3.90;;
9072;SDS011;4572;41.642;25.370;2023-05-14T06:55:39;5.47;;;4.03;;
9072;SDS011;4572;41.642;25.370;2023-05-14T06:58:05;5.70;;;4.07;;
9072;SDS011;4572;41.642;25.370;2023-05-14T07:00:31;4.10;;;3.60;;
9072;SDS011;4572;41.642;25.370;2023-05-14T07:02:57;6.70;;;4.30;;
9072;SDS011;4572;41.642;25.370;2023-05-14T07:05:23;4.77;;;3.90;;
9072;SDS011;4572;41.642;25.370;2023-05-14T07:07:48;5.07;;;4.30;;
9072;SDS011;4572;41.642;25.370;2023-05-14T07:10:14;4.23;;;3.47;;
9072;SDS011;4572;41.642;25.370;2023-05-14T07:12:40;8.37;;;4.60;;
9072;SDS011;4572;41.642;25.370;2023-05-14T07:15:05;5.87;;;3.90;;
9072;SDS011;4572;41.642;25.370;2023-05-14T07:17:31;5.13;;;3.43;;
9072;SDS011;4572;41.642;25.370;2023-05-14T07:19:57;5.73;;;3.57;;
9072;SDS011;4572;41.642;25.370;2023-05-14T07:22:22;5.37;;;4.60;;
9072;SDS011;4572;41.642;25.370;2023-05-14T07:24:48;6.73;;;4.90;;
9072;SDS011;4572;41.642;25.370;2023-05-14T07:27:14;7.27;;;4.93;;
9072;SDS011;4572;41.642;25.370;2023-05-14T07:29:40;7.83;;;4.67;;
9072;SDS011;4572;41.642;25.370;2023-05-14T07:32:06;6.97;;;4.77;;
9072;SDS011;4572;41.642;25.370;2023-05-14T07:34:32;5.23;;;4.00;;
9072;SDS011;4572;41.642;25.370;2023-05-14T07:36:57;5.83;;;4.70;;
9072;SDS011;4572;41.642;25.370;2023-05-14T07:39:22;6.20;;;4.50;;
9072;SDS011;4572;41.642;25.370;2023-05-14T07:41:48;5.30;;;4.80;;
9072;SDS011;4572;41.642;25.370;2023-05-14T07:44:14;5.67;;;4.73;;
9072;SDS011;4572;41.642;25.370;2023-05-14T07:46:39;9.97;;;4.83;;
9072;SDS011;4572;41.642;25.370;2023-05-14T07:49:05;5.60;;;4.43;;
9072;SDS011;4572;41.642;25.370;2023-05-14T07:51:30;5.33;;;4.40;;
9072;SDS011;4572;41.642;25.370;2023-05-14T07:53:57;5.87;;;4.70;;
9072;SDS011;4572;41.642;25.370;2023-05-14T07:56:23;6.40;;;4.90;;
9072;SDS011;4572;41.642;25.370;2023-05-14T07:58:49;5.50;;;4.60;;
9072;SDS011;4572;41.642;25.370;2023-05-14T08:01:15;4.80;;;4.30;;
9072;SDS011;4572;41.642;25.370;2023-05-14T08:03:41;4.33;;;3.93;;
9072;SDS011;4572;41.642;25.370;2023-05-14T08:06:06;5.50;;;4.00;;
9072;SDS011;4572;41.642;25.370;2023-05-14T08:08:32;4.93;;;4.17;;
9072;SDS011;4572;41.642;25.370;2023-05-14T08:10:58;5.23;;;4.00;;
9072;SDS011;4572;41.642;25.370;2023-05-14T08:13:23;4.93;;;4.03;;
9072;SDS011;4572;41.642;25.370;2023-05-14T08:15:49;5.40;;;4.13;;
9072;SDS011;4572;41.642;25.370;2023-05-14T08:18:14;5.90;;;4.23;;
9072;SDS011;4572;41.642;25.370;2023-05-14T08:20:40;5.07;;;4.10;;
9072;SDS011;4572;41.642;25.370;2023-05-14T08:23:06;5.13;;;4.60;;
9072;SDS011;4572;41.642;25.370;2023-05-14T08:25:32;5.50;;;4.37;;
9072;SDS011;4572;41.642;25.370;2023-05-14T08:27:57;5.73;;;5.03;;
9072;SDS011;4572;41.642;25.370;2023-05-14T08:30:24;9.27;;;5.27;;
9072;SDS011;4572;41.642;25.370;2023-05-14T08:32:49;7.07;;;4.53;;
9072;SDS011;4572;41.642;25.370;2023-05-14T08:35:15;9.00;;;4.97;;
9072;SDS011;4572;41.642;25.370;2023-05-14T08:37:42;5.33;;;4.50;;
9072;SDS011;4572;41.642;25.370;2023-05-14T08:40:08;5.50;;;4.83;;
9072;SDS011;4572;41.642;25.370;2023-05-14T08:42:33;5.97;;;4.53;;
9072;SDS011;4572;41.642;25.370;2023-05-14T08:45:00;6.07;;;5.20;;
9072;SDS011;4572;41.642;25.370;2023-05-14T08:47:27;5.40;;;4.90;;
9072;SDS011;4572;41.642;25.370;2023-05-14T08:50:00;5.03;;;4.53;;
9072;SDS011;4572;41.642;25.370;2023-05-14T08:52:30;4.40;;;4.00;;
9072;SDS011;4572;41.642;25.370;2023-05-14T08:55:00;5.37;;;4.20;;
9072;SDS011;4572;41.642;25.370;2023-05-14T08:57:27;5.50;;;4.63;;
9072;SDS011;4572;41.642;25.370;2023-05-14T08:59:55;4.60;;;4.20;;
9072;SDS011;4572;41.642;25.370;2023-05-14T09:02:27;4.67;;;4.17;;
9072;SDS011;4572;41.642;25.370;2023-05-14T09:04:57;6.33;;;4.30;;
9072;SDS011;4572;41.642;25.370;2023-05-14T09:07:24;5.90;;;3.93;;
9072;SDS011;4572;41.642;25.370;2023-05-14T09:09:50;6.73;;;4.47;;
9072;SDS011;4572;41.642;25.370;2023-05-14T09:12:16;7.30;;;5.23;;
9072;SDS011;4572;41.642;25.370;2023-05-14T09:14:43;6.03;;;5.43;;
9072;SDS011;4572;41.642;25.370;2023-05-14T09:17:09;6.57;;;4.93;;
9072;SDS011;4572;41.642;25.370;2023-05-14T09:19:38;6.90;;;5.30;;
9072;SDS011;4572;41.642;25.370;2023-05-14T09:22:08;6.47;;;5.27;;
9072;SDS011;4572;41.642;25.370;2023-05-14T09:24:35;6.23;;;5.17;;
9072;SDS011;4572;41.642;25.370;2023-05-14T09:27:03;8.33;;;5.73;;
9072;SDS011;4572;41.642;25.370;2023-05-14T09:29:29;7.27;;;5.27;;
9072;SDS011;4572;41.642;25.370;2023-05-14T09:31:56;6.43;;;4.47;;
9072;SDS011;4572;41.642;25.370;2023-05-14T09:34:22;5.37;;;4.57;;
9072;SDS011;4572;41.642;25.370;2023-05-14T09:36:56;5.77;;;4.80;;
9072;SDS011;4572;41.642;25.370;2023-05-14T09:39:22;7.07;;;4.97;;
9072;SDS011;4572;41.642;25.370;2023-05-14T09:41:48;5.23;;;4.30;;
9072;SDS011;4572;41.642;25.370;2023-05-14T09:44:15;5.60;;;4.60;;
9072;SDS011;4572;41.642;25.370;2023-05-14T09:46:41;5.07;;;4.57;;
9072;SDS011;4572;41.642;25.370;2023-05-14T09:49:07;9.23;;;4.77;;
9072;SDS011;4572;41.642;25.370;2023-05-14T09:51:32;5.20;;;4.30;;
9072;SDS011;4572;41.642;25.370;2023-05-14T09:53:58;6.27;;;4.00;;
9072;SDS011;4572;41.642;25.370;2023-05-14T09:56:24;7.20;;;4.30;;
9072;SDS011;4572;41.642;25.370;2023-05-14T09:58:50;6.80;;;4.90;;
9072;SDS011;4572;41.642;25.370;2023-05-14T10:01:16;8.93;;;5.00;;
9072;SDS011;4572;41.642;25.370;2023-05-14T10:03:43;7.80;;;4.93;;
9072;SDS011;4572;41.642;25.370;2023-05-14T10:06:08;7.00;;;5.20;;
9072;SDS011;4572;41.642;25.370;2023-05-14T10:08:36;6.70;;;5.07;;
9072;SDS011;4572;41.642;25.370;2023-05-14T10:11:07;5.03;;;4.03;;
9072;SDS011;4572;41.642;25.370;2023-05-14T10:13:45;4.23;;;3.83;;
9072;SDS011;4572;41.642;25.370;2023-05-14T10:16:20;5.17;;;4.03;;
9072;SDS011;4572;41.642;25.370;2023-05-14T10:19:09;4.77;;;4.27;;
9072;SDS011;4572;41.642;25.370;2023-05-14T10:21:36;4.00;;;3.57;;
9072;SDS011;4572;41.642;25.370;2023-05-14T10:24:05;4.03;;;3.27;;
9072;SDS011;4572;41.642;25.370;2023-05-14T10:26:43;5.67;;;3.70;;
9072;SDS011;4572;41.642;25.370;2023-05-14T10:29:09;5.53;;;3.57;;
9072;SDS011;4572;41.642;25.370;2023-05-14T10:37:11;4.80;;;4.27;;
9072;SDS011;4572;41.642;25.370;2023-05-14T10:39:42;5.03;;;4.00;;
9072;SDS011;4572;41.642;25.370;2023-05-14T10:42:21;6.07;;;4.07;;
9072;SDS011;4572;41.642;25.370;2023-05-14T10:44:48;5.93;;;3.70;;
9072;SDS011;4572;41.642;25.370;2023-05-14T10:47:35;4.57;;;4.17;;
9072;SDS011;4572;41.642;25.370;2023-05-14T10:50:05;3.90;;;3.50;;
9072;SDS011;4572;41.642;25.370;2023-05-14T10:52:32;4.40;;;3.70;;
9072;SDS011;4572;41.642;25.370;2023-05-14T10:55:00;3.77;;;3.47;;
9072;SDS011;4572;41.642;25.370;2023-05-14T10:57:34;4.40;;;3.90;;
9072;SDS011;4572;41.642;25.370;2023-05-14T11:00:01;5.10;;;3.53;;
9072;SDS011;4572;41.642;25.370;2023-05-14T11:02:32;4.13;;;3.70;;
9072;SDS011;4572;41.642;25.370;2023-05-14T11:05:06;5.67;;;4.30;;
9072;SDS011;4572;41.642;25.370;2023-05-14T11:07:38;5.70;;;4.07;;
9072;SDS011;4572;41.642;25.370;2023-05-14T11:10:06;4.93;;;2.90;;
9072;SDS011;4572;41.642;25.370;2023-05-14T11:12:33;3.77;;;3.37;;
9072;SDS011;4572;41.642;25.370;2023-05-14T11:15:02;3.80;;;3.10;;
9072;SDS011;4572;41.642;25.370;2023-05-14T11:17:33;3.57;;;3.13;;
9072;SDS011;4572;41.642;25.370;2023-05-14T11:20:01;4.63;;;3.47;;
9072;SDS011;4572;41.642;25.370;2023-05-14T11:22:33;6.17;;;3.10;;
9072;SDS011;4572;41.642;25.370;2023-05-14T11:24:59;3.83;;;3.20;;
9072;SDS011;4572;41.642;25.370;2023-05-14T11:27:24;3.43;;;3.10;;
9072;SDS011;4572;41.642;25.370;2023-05-14T11:29:50;3.40;;;2.90;;
9072;SDS011;4572;41.642;25.370;2023-05-14T11:32:20;3.53;;;3.23;;
9072;SDS011;4572;41.642;25.370;2023-05-14T11:34:46;3.50;;;2.83;;
9072;SDS011;4572;41.642;25.370;2023-05-14T11:37:12;3.07;;;2.70;;
9072;SDS011;4572;41.642;25.370;2023-05-14T11:39:42;3.57;;;2.83;;
9072;SDS011;4572;41.642;25.370;2023-05-14T11:42:11;3.20;;;2.60;;
9072;SDS011;4572;41.642;25.370;2023-05-14T11:44:39;3.20;;;2.90;;
9072;SDS011;4572;41.642;25.370;2023-05-14T11:47:05;5.03;;;3.50;;
9072;SDS011;4572;41.642;25.370;2023-05-14T11:49:30;3.03;;;2.73;;
9072;SDS011;4572;41.642;25.370;2023-05-14T11:51:56;4.30;;;2.80;;
9072;SDS011;4572;41.642;25.370;2023-05-14T11:54:29;3.13;;;2.73;;
9072;SDS011;4572;41.642;25.370;2023-05-14T11:56:58;5.53;;;3.60;;
9072;SDS011;4572;41.642;25.370;2023-05-14T11:59:32;4.80;;;2.70;;
9072;SDS011;4572;41.642;25.370;2023-05-14T12:01:57;5.87;;;2.97;;
9072;SDS011;4572;41.642;25.370;2023-05-14T12:04:23;4.17;;;3.00;;
9072;SDS011;4572;41.642;25.370;2023-05-14T12:06:52;3.97;;;3.20;;
9072;SDS011;4572;41.642;25.370;2023-05-14T12:09:18;4.13;;;3.37;;
9072;SDS011;4572;41.642;25.370;2023-05-14T12:11:45;3.47;;;2.97;;
9072;SDS011;4572;41.642;25.370;2023-05-14T12:14:13;5.07;;;3.27;;
9072;SDS011;4572;41.642;25.370;2023-05-14T12:16:40;3.40;;;3.10;;
9072;SDS011;4572;41.642;25.370;2023-05-14T12:19:09;7.17;;;3.23;;
9072;SDS011;4572;41.642;25.370;2023-05-14T12:21:38;3.08;;;2.78;;
9072;SDS011;4572;41.642;25.370;2023-05-14T12:24:08;3.10;;;2.80;;
9072;SDS011;4572;41.642;25.370;2023-05-14T12:26:34;3.83;;;2.90;;
9072;SDS011;4572;41.642;25.370;2023-05-14T12:29:02;3.03;;;2.73;;
9072;SDS011;4572;41.642;25.370;2023-05-14T12:31:33;2.63;;;2.40;;
9072;SDS011;4572;41.642;25.370;2023-05-14T12:33:59;3.35;;;3.00;;
9072;SDS011;4572;41.642;25.370;2023-05-14T12:36:24;3.27;;;2.97;;
9072;SDS011;4572;41.642;25.370;2023-05-14T12:38:55;2.90;;;2.70;;
9072;SDS011;4572;41.642;25.370;2023-05-14T12:41:22;3.88;;;3.05;;
9072;SDS011;4572;41.642;25.370;2023-05-14T12:43:47;3.45;;;2.90;;
9072;SDS011;4572;41.642;25.370;2023-05-14T12:46:13;4.45;;;3.38;;
9072;SDS011;4572;41.642;25.370;2023-05-14T12:48:39;5.10;;;2.63;;
9072;SDS011;4572;41.642;25.370;2023-05-14T12:51:05;3.63;;;3.03;;
9072;SDS011;4572;41.642;25.370;2023-05-14T12:53:31;3.50;;;3.08;;
9072;SDS011;4572;41.642;25.370;2023-05-14T12:55:57;2.90;;;2.70;;
9072;SDS011;4572;41.642;25.370;2023-05-14T12:58:23;3.60;;;2.55;;
9072;SDS011;4572;41.642;25.370;2023-05-14T13:00:48;3.38;;;2.50;;
9072;SDS011;4572;41.642;25.370;2023-05-14T13:03:14;3.00;;;2.70;;
9072;SDS011;4572;41.642;25.370;2023-05-14T13:05:39;3.55;;;2.67;;
9072;SDS011;4572;41.642;25.370;2023-05-14T13:08:05;3.35;;;2.80;;
9072;SDS011;4572;41.642;25.370;2023-05-14T13:10:30;3.97;;;2.67;;
9072;SDS011;4572;41.642;25.370;2023-05-14T13:12:56;3.05;;;2.75;;
9072;SDS011;4572;41.642;25.370;2023-05-14T13:15:22;3.33;;;2.85;;
9072;SDS011;4572;41.642;25.370;2023-05-14T13:17:47;3.67;;;3.13;;
9072;SDS011;4572;41.642;25.370;2023-05-14T13:20:13;4.20;;;2.70;;
9072;SDS011;4572;41.642;25.370;2023-05-14T13:22:40;2.60;;;2.40;;
9072;SDS011;4572;41.642;25.370;2023-05-14T13:25:05;3.92;;;2.88;;
9072;SDS011;4572;41.642;25.370;2023-05-14T13:27:31;2.92;;;2.40;;
9072;SDS011;4572;41.642;25.370;2023-05-14T13:29:57;3.38;;;2.55;;
9072;SDS011;4572;41.642;25.370;2023-05-14T13:32:24;3.45;;;2.67;;
9072;SDS011;4572;41.642;25.370;2023-05-14T13:34:49;4.22;;;2.85;;
9072;SDS011;4572;41.642;25.370;2023-05-14T13:37:15;3.25;;;2.75;;
9072;SDS011;4572;41.642;25.370;2023-05-14T13:39:40;3.55;;;2.35;;
9072;SDS011;4572;41.642;25.370;2023-05-14T13:42:06;2.58;;;2.35;;
9072;SDS011;4572;41.642;25.370;2023-05-14T13:44:31;2.63;;;2.42;;
9072;SDS011;4572;41.642;25.370;2023-05-14T13:46:57;2.80;;;2.60;;
9072;SDS011;4572;41.642;25.370;2023-05-14T13:49:23;4.25;;;2.60;;
9072;SDS011;4572;41.642;25.370;2023-05-14T13:51:48;3.53;;;2.50;;
9072;SDS011;4572;41.642;25.370;2023-05-14T13:54:14;4.03;;;2.42;;
9072;SDS011;4572;41.642;25.370;2023-05-14T13:56:39;2.83;;;2.47;;
9072;SDS011;4572;41.642;25.370;2023-05-14T13:59:05;3.58;;;3.05;;
9072;SDS011;4572;41.642;25.370;2023-05-14T14:01:30;3.63;;;2.78;;
9072;SDS011;4572;41.642;25.370;2023-05-14T14:03:56;4.20;;;2.67;;
9072;SDS011;4572;41.642;25.370;2023-05-14T14:06:21;3.65;;;2.97;;
9072;SDS011;4572;41.642;25.370;2023-05-14T14:08:47;2.80;;;2.50;;
9072;SDS011;4572;41.642;25.370;2023-05-14T14:11:12;3.92;;;2.60;;
9072;SDS011;4572;41.642;25.370;2023-05-14T14:13:38;5.30;;;2.78;;
9072;SDS011;4572;41.642;25.370;2023-05-14T14:16:04;5.93;;;2.63;;
9072;SDS011;4572;41.642;25.370;2023-05-14T14:18:30;4.88;;;3.22;;
9072;SDS011;4572;41.642;25.370;2023-05-14T14:20:56;3.38;;;2.72;;
9072;SDS011;4572;41.642;25.370;2023-05-14T14:23:22;4.03;;;2.88;;
9072;SDS011;4572;41.642;25.370;2023-05-14T14:25:47;3.65;;;2.67;;
9072;SDS011;4572;41.642;25.370;2023-05-14T14:28:13;3.10;;;2.80;;
9072;SDS011;4572;41.642;25.370;2023-05-14T14:30:38;3.80;;;2.88;;
9072;SDS011;4572;41.642;25.370;2023-05-14T14:33:04;3.17;;;2.88;;
9072;SDS011;4572;41.642;25.370;2023-05-14T14:35:29;2.92;;;2.47;;
9072;SDS011;4572;41.642;25.370;2023-05-14T14:37:56;3.00;;;2.50;;
9072;SDS011;4572;41.642;25.370;2023-05-14T14:40:22;2.95;;;2.60;;
9072;SDS011;4572;41.642;25.370;2023-05-14T14:42:48;4.60;;;3.17;;
9072;SDS011;4572;41.642;25.370;2023-05-14T14:45:13;3.85;;;3.08;;
9072;SDS011;4572;41.642;25.370;2023-05-14T14:47:43;3.53;;;2.72;;
9072;SDS011;4572;41.642;25.370;2023-05-14T14:50:10;6.20;;;3.20;;
9072;SDS011;4572;41.642;25.370;2023-05-14T14:52:37;3.60;;;2.92;;
9072;SDS011;4572;41.642;25.370;2023-05-14T14:55:03;6.38;;;2.88;;
9072;SDS011;4572;41.642;25.370;2023-05-14T14:57:29;3.20;;;2.90;;
9072;SDS011;4572;41.642;25.370;2023-05-14T14:59:54;4.50;;;3.08;;
9072;SDS011;4572;41.642;25.370;2023-05-14T15:02:20;4.10;;;2.42;;
9072;SDS011;4572;41.642;25.370;2023-05-14T15:04:47;3.30;;;2.53;;
9072;SDS011;4572;41.642;25.370;2023-05-14T15:07:12;3.35;;;2.97;;